sensor_id;sensor_type;location;lat;lon;timestamp;temperature;humidity
3051;DHT22;1535;51.098;6.414;2023-12-14T00:01:55;8.20;99.90
3051;DHT22;1535;51.098;6.414;2023-12-14T00:04:23;8.20;99.90
3051;DHT22;1535;51.098;6.414;2023-12-14T00:06:50;8.20;99.90
3051;DHT22;1535;51.098;6.414;2023-12-14T00:09:18;8.20;99.90
3051;DHT22;1535;51.098;6.414;2023-12-14T00:11:44;8.20;99.90
3051;DHT22;1535;51.098;6.414;2023-12-14T00:14:12;8.20;99.90
3051;DHT22;1535;51.098;6.414;2023-12-14T00:16:39;8.20;99.90
3051;DHT22;1535;51.098;6.414;2023-12-14T00:19:07;8.20;99.90
3051;DHT22;1535;51.098;6.414;2023-12-14T00:21:35;8.30;99.90
3051;DHT22;1535;51.098;6.414;2023-12-14T00:24:02;8.30;99.90
3051;DHT22;1535;51.098;6.414;2023-12-14T00:26:29;8.30;99.90
3051;DHT22;1535;51.098;6.414;2023-12-14T00:28:56;8.30;99.90
3051;DHT22;1535;51.098;6.414;2023-12-14T00:31:22;8.30;99.90
3051;DHT22;1535;51.098;6.414;2023-12-14T00:33:49;8.30;99.90
3051;DHT22;1535;51.098;6.414;2023-12-14T00:36:19;8.30;99.90
3051;DHT22;1535;51.098;6.414;2023-12-14T00:38:48;8.40;99.90
3051;DHT22;1535;51.098;6.414;2023-12-14T00:41:15;8.30;99.90
3051;DHT22;1535;51.098;6.414;2023-12-14T00:43:43;8.30;99.90
3051;DHT22;1535;51.098;6.414;2023-12-14T00:46:10;8.30;99.90
3051;DHT22;1535;51.098;6.414;2023-12-14T00:48:37;8.30;99.90
3051;DHT22;1535;51.098;6.414;2023-12-14T00:51:04;8.40;99.90
3051;DHT22;1535;51.098;6.414;2023-12-14T00:53:32;8.40;99.90
3051;DHT22;1535;51.098;6.414;2023-12-14T00:56:00;8.30;99.90
3051;DHT22;1535;51.098;6.414;2023-12-14T00:58:27;8.40;99.90
3051;DHT22;1535;51.098;6.414;2023-12-14T01:00:54;8.40;99.90
3051;DHT22;1535;51.098;6.414;2023-12-14T01:03:21;8.30;99.90
3051;DHT22;1535;51.098;6.414;2023-12-14T01:05:48;8.30;99.90
3051;DHT22;1535;51.098;6.414;2023-12-14T01:08:15;8.30;99.90
3051;DHT22;1535;51.098;6.414;2023-12-14T01:10:42;8.30;99.90
3051;DHT22;1535;51.098;6.414;2023-12-14T01:13:12;8.40;99.90
3051;DHT22;1535;51.098;6.414;2023-12-14T01:15:39;8.30;99.90
3051;DHT22;1535;51.098;6.414;2023-12-14T01:18:06;8.30;99.90
3051;DHT22;1535;51.098;6.414;2023-12-14T01:20:33;8.30;99.90
3051;DHT22;1535;51.098;6.414;2023-12-14T01:23:01;8.20;99.90
3051;DHT22;1535;51.098;6.414;2023-12-14T01:25:27;8.20;99.90
3051;DHT22;1535;51.098;6.414;2023-12-14T01:27:54;8.10;99.90
3051;DHT22;1535;51.098;6.414;2023-12-14T01:30:23;8.10;99.90
3051;DHT22;1535;51.098;6.414;2023-12-14T01:32:50;8.00;99.90
3051;DHT22;1535;51.098;6.414;2023-12-14T01:35:17;8.00;99.90
3051;DHT22;1535;51.098;6.414;2023-12-14T01:37:44;8.00;99.90
3051;DHT22;1535;51.098;6.414;2023-12-14T01:40:11;8.00;99.90
3051;DHT22;1535;51.098;6.414;2023-12-14T01:42:39;7.90;99.90
3051;DHT22;1535;51.098;6.414;2023-12-14T01:45:07;7.90;99.90
3051;DHT22;1535;51.098;6.414;2023-12-14T01:47:35;7.90;99.90
3051;DHT22;1535;51.098;6.414;2023-12-14T01:50:02;7.90;99.90
3051;DHT22;1535;51.098;6.414;2023-12-14T01:52:29;7.70;99.90
3051;DHT22;1535;51.098;6.414;2023-12-14T01:54:56;7.70;99.90
3051;DHT22;1535;51.098;6.414;2023-12-14T01:57:24;7.60;99.90
3051;DHT22;1535;51.098;6.414;2023-12-14T01:59:51;7.60;99.90
3051;DHT22;1535;51.098;6.414;2023-12-14T02:02:18;7.50;99.90
3051;DHT22;1535;51.098;6.414;2023-12-14T02:04:47;7.40;99.90
3051;DHT22;1535;51.098;6.414;2023-12-14T02:07:14;7.30;99.90
3051;DHT22;1535;51.098;6.414;2023-12-14T02:09:41;7.20;99.90
3051;DHT22;1535;51.098;6.414;2023-12-14T02:12:08;7.10;99.90
3051;DHT22;1535;51.098;6.414;2023-12-14T02:14:35;7.10;99.90
3051;DHT22;1535;51.098;6.414;2023-12-14T02:17:02;7.10;99.90
3051;DHT22;1535;51.098;6.414;2023-12-14T02:19:28;7.20;99.90
3051;DHT22;1535;51.098;6.414;2023-12-14T02:21:56;7.10;99.90
3051;DHT22;1535;51.098;6.414;2023-12-14T02:24:24;7.00;99.90
3051;DHT22;1535;51.098;6.414;2023-12-14T02:26:51;7.10;99.90
3051;DHT22;1535;51.098;6.414;2023-12-14T02:29:18;7.10;99.90
3051;DHT22;1535;51.098;6.414;2023-12-14T02:31:46;7.10;99.90
3051;DHT22;1535;51.098;6.414;2023-12-14T02:34:14;7.10;99.90
3051;DHT22;1535;51.098;6.414;2023-12-14T02:36:41;7.00;99.90
3051;DHT22;1535;51.098;6.414;2023-12-14T02:39:08;7.00;99.90
3051;DHT22;1535;51.098;6.414;2023-12-14T02:41:36;7.00;99.90
3051;DHT22;1535;51.098;6.414;2023-12-14T02:44:02;6.90;99.90
3051;DHT22;1535;51.098;6.414;2023-12-14T02:46:30;6.90;99.90
3051;DHT22;1535;51.098;6.414;2023-12-14T02:48:58;7.00;99.90
3051;DHT22;1535;51.098;6.414;2023-12-14T02:51:25;6.90;99.90
3051;DHT22;1535;51.098;6.414;2023-12-14T02:53:52;6.80;99.90
3051;DHT22;1535;51.098;6.414;2023-12-14T02:56:18;6.80;99.90
3051;DHT22;1535;51.098;6.414;2023-12-14T02:58:46;6.90;99.90
3051;DHT22;1535;51.098;6.414;2023-12-14T03:01:18;6.80;99.90
3051;DHT22;1535;51.098;6.414;2023-12-14T03:03:47;6.80;99.90
3051;DHT22;1535;51.098;6.414;2023-12-14T03:06:14;6.70;99.90
3051;DHT22;1535;51.098;6.414;2023-12-14T03:08:41;6.70;99.90
3051;DHT22;1535;51.098;6.414;2023-12-14T03:11:08;6.70;99.90
3051;DHT22;1535;51.098;6.414;2023-12-14T03:13:34;6.70;99.90
3051;DHT22;1535;51.098;6.414;2023-12-14T03:16:03;6.70;99.90
3051;DHT22;1535;51.098;6.414;2023-12-14T03:18:32;6.70;99.90
3051;DHT22;1535;51.098;6.414;2023-12-14T03:20:59;6.70;99.90
3051;DHT22;1535;51.098;6.414;2023-12-14T03:23:26;6.70;99.90
3051;DHT22;1535;51.098;6.414;2023-12-14T03:25:53;6.70;99.90
3051;DHT22;1535;51.098;6.414;2023-12-14T03:28:20;6.60;99.90
3051;DHT22;1535;51.098;6.414;2023-12-14T03:30:47;6.60;99.90
3051;DHT22;1535;51.098;6.414;2023-12-14T03:33:16;6.60;99.90
3051;DHT22;1535;51.098;6.414;2023-12-14T03:35:44;6.60;99.90
3051;DHT22;1535;51.098;6.414;2023-12-14T03:38:13;6.60;99.90
3051;DHT22;1535;51.098;6.414;2023-12-14T03:40:40;6.50;99.90
3051;DHT22;1535;51.098;6.414;2023-12-14T03:43:08;6.50;99.90
3051;DHT22;1535;51.098;6.414;2023-12-14T03:45:35;6.40;99.90
3051;DHT22;1535;51.098;6.414;2023-12-14T03:48:01;6.40;99.90
3051;DHT22;1535;51.098;6.414;2023-12-14T03:50:30;6.40;99.90
3051;DHT22;1535;51.098;6.414;2023-12-14T03:52:58;6.40;99.90
3051;DHT22;1535;51.098;6.414;2023-12-14T03:55:25;6.50;99.90
3051;DHT22;1535;51.098;6.414;2023-12-14T03:57:52;6.40;99.90
3051;DHT22;1535;51.098;6.414;2023-12-14T04:00:19;6.40;99.90
3051;DHT22;1535;51.098;6.414;2023-12-14T04:02:46;6.30;99.90
3051;DHT22;1535;51.098;6.414;2023-12-14T04:05:13;6.20;99.90
3051;DHT22;1535;51.098;6.414;2023-12-14T04:07:42;6.20;99.90
3051;DHT22;1535;51.098;6.414;2023-12-14T04:10:09;6.20;99.90
3051;DHT22;1535;51.098;6.414;2023-12-14T04:15:32;6.20;99.90
3051;DHT22;1535;51.098;6.414;2023-12-14T04:17:59;6.20;99.90
3051;DHT22;1535;51.098;6.414;2023-12-14T04:20:26;6.20;99.90
3051;DHT22;1535;51.098;6.414;2023-12-14T04:22:55;6.20;99.90
3051;DHT22;1535;51.098;6.414;2023-12-14T04:25:22;6.20;99.90
3051;DHT22;1535;51.098;6.414;2023-12-14T04:27:50;6.20;99.90
3051;DHT22;1535;51.098;6.414;2023-12-14T04:30:17;6.20;99.90
3051;DHT22;1535;51.098;6.414;2023-12-14T04:32:45;6.20;99.90
3051;DHT22;1535;51.098;6.414;2023-12-14T04:35:13;6.20;99.90
3051;DHT22;1535;51.098;6.414;2023-12-14T04:37:41;6.20;99.90
3051;DHT22;1535;51.098;6.414;2023-12-14T04:40:11;6.20;99.90
3051;DHT22;1535;51.098;6.414;2023-12-14T04:42:37;6.20;99.90
3051;DHT22;1535;51.098;6.414;2023-12-14T04:45:05;6.20;99.90
3051;DHT22;1535;51.098;6.414;2023-12-14T04:47:33;6.20;99.90
3051;DHT22;1535;51.098;6.414;2023-12-14T04:50:01;6.20;99.90
3051;DHT22;1535;51.098;6.414;2023-12-14T04:52:29;6.10;99.90
3051;DHT22;1535;51.098;6.414;2023-12-14T04:54:56;6.10;99.90
3051;DHT22;1535;51.098;6.414;2023-12-14T04:57:25;6.20;99.90
3051;DHT22;1535;51.098;6.414;2023-12-14T04:59:52;6.20;99.90
3051;DHT22;1535;51.098;6.414;2023-12-14T05:02:19;6.20;99.90
3051;DHT22;1535;51.098;6.414;2023-12-14T05:04:46;6.20;99.90
3051;DHT22;1535;51.098;6.414;2023-12-14T05:07:13;6.20;99.90
3051;DHT22;1535;51.098;6.414;2023-12-14T05:09:41;6.30;99.90
3051;DHT22;1535;51.098;6.414;2023-12-14T05:12:08;6.20;99.90
3051;DHT22;1535;51.098;6.414;2023-12-14T05:14:37;6.10;99.90
3051;DHT22;1535;51.098;6.414;2023-12-14T05:17:04;6.20;99.90
3051;DHT22;1535;51.098;6.414;2023-12-14T05:19:32;6.20;99.90
3051;DHT22;1535;51.098;6.414;2023-12-14T05:21:59;6.10;99.90
3051;DHT22;1535;51.098;6.414;2023-12-14T05:24:26;6.00;99.90
3051;DHT22;1535;51.098;6.414;2023-12-14T05:26:53;6.00;99.90
3051;DHT22;1535;51.098;6.414;2023-12-14T05:29:20;6.00;99.90
3051;DHT22;1535;51.098;6.414;2023-12-14T05:31:50;6.00;99.90
3051;DHT22;1535;51.098;6.414;2023-12-14T05:34:17;6.00;99.90
3051;DHT22;1535;51.098;6.414;2023-12-14T05:36:44;5.90;99.90
3051;DHT22;1535;51.098;6.414;2023-12-14T05:39:11;5.90;99.90
3051;DHT22;1535;51.098;6.414;2023-12-14T05:41:40;5.90;99.90
3051;DHT22;1535;51.098;6.414;2023-12-14T05:44:07;5.90;99.90
3051;DHT22;1535;51.098;6.414;2023-12-14T05:46:35;5.80;99.90
3051;DHT22;1535;51.098;6.414;2023-12-14T05:49:04;5.90;99.90
3051;DHT22;1535;51.098;6.414;2023-12-14T05:51:32;5.80;99.90
3051;DHT22;1535;51.098;6.414;2023-12-14T05:53:59;5.90;99.90
3051;DHT22;1535;51.098;6.414;2023-12-14T05:56:27;5.90;99.90
3051;DHT22;1535;51.098;6.414;2023-12-14T05:58:55;5.90;99.90
3051;DHT22;1535;51.098;6.414;2023-12-14T06:01:23;5.80;99.90
3051;DHT22;1535;51.098;6.414;2023-12-14T06:03:51;5.80;99.90
3051;DHT22;1535;51.098;6.414;2023-12-14T06:06:22;5.80;99.90
3051;DHT22;1535;51.098;6.414;2023-12-14T06:08:49;5.90;99.90
3051;DHT22;1535;51.098;6.414;2023-12-14T06:11:17;6.00;99.90
3051;DHT22;1535;51.098;6.414;2023-12-14T06:13:43;5.90;99.90
3051;DHT22;1535;51.098;6.414;2023-12-14T06:16:10;5.90;99.90
3051;DHT22;1535;51.098;6.414;2023-12-14T06:18:39;5.80;99.90
3051;DHT22;1535;51.098;6.414;2023-12-14T06:21:07;5.80;99.90
3051;DHT22;1535;51.098;6.414;2023-12-14T06:23:38;5.80;99.90
3051;DHT22;1535;51.098;6.414;2023-12-14T06:26:05;5.80;99.90
3051;DHT22;1535;51.098;6.414;2023-12-14T06:28:32;5.80;99.90
3051;DHT22;1535;51.098;6.414;2023-12-14T06:30:59;5.80;99.90
3051;DHT22;1535;51.098;6.414;2023-12-14T06:33:26;5.90;99.90
3051;DHT22;1535;51.098;6.414;2023-12-14T06:35:53;5.80;99.90
3051;DHT22;1535;51.098;6.414;2023-12-14T06:38:20;5.80;99.90
3051;DHT22;1535;51.098;6.414;2023-12-14T06:40:48;5.80;99.90
3051;DHT22;1535;51.098;6.414;2023-12-14T06:43:15;5.80;99.90
3051;DHT22;1535;51.098;6.414;2023-12-14T06:45:43;5.70;99.90
3051;DHT22;1535;51.098;6.414;2023-12-14T06:48:10;5.70;99.90
3051;DHT22;1535;51.098;6.414;2023-12-14T06:50:37;5.80;99.90
3051;DHT22;1535;51.098;6.414;2023-12-14T06:53:05;5.70;99.90
3051;DHT22;1535;51.098;6.414;2023-12-14T06:55:32;5.70;99.90
3051;DHT22;1535;51.098;6.414;2023-12-14T06:58:00;5.70;99.90
3051;DHT22;1535;51.098;6.414;2023-12-14T07:00:27;5.70;99.90
3051;DHT22;1535;51.098;6.414;2023-12-14T07:02:55;5.60;99.90
3051;DHT22;1535;51.098;6.414;2023-12-14T07:05:21;5.60;99.90
3051;DHT22;1535;51.098;6.414;2023-12-14T07:07:48;5.60;99.90
3051;DHT22;1535;51.098;6.414;2023-12-14T07:10:15;5.60;99.90
3051;DHT22;1535;51.098;6.414;2023-12-14T07:12:42;5.60;99.90
3051;DHT22;1535;51.098;6.414;2023-12-14T07:15:12;5.70;99.90
3051;DHT22;1535;51.098;6.414;2023-12-14T07:17:39;5.70;99.90
3051;DHT22;1535;51.098;6.414;2023-12-14T07:20:07;5.70;99.90
3051;DHT22;1535;51.098;6.414;2023-12-14T07:22:34;5.70;99.90
3051;DHT22;1535;51.098;6.414;2023-12-14T07:25:01;5.70;99.90
3051;DHT22;1535;51.098;6.414;2023-12-14T07:27:27;5.70;99.90
3051;DHT22;1535;51.098;6.414;2023-12-14T07:29:54;5.60;99.90
3051;DHT22;1535;51.098;6.414;2023-12-14T07:32:22;5.60;99.90
3051;DHT22;1535;51.098;6.414;2023-12-14T07:34:49;5.50;99.90
3051;DHT22;1535;51.098;6.414;2023-12-14T07:37:16;5.60;99.90
3051;DHT22;1535;51.098;6.414;2023-12-14T07:39:43;5.50;99.90
3051;DHT22;1535;51.098;6.414;2023-12-14T07:42:11;5.50;99.90
3051;DHT22;1535;51.098;6.414;2023-12-14T07:44:43;5.50;99.90
3051;DHT22;1535;51.098;6.414;2023-12-14T07:47:10;5.50;99.90
3051;DHT22;1535;51.098;6.414;2023-12-14T07:49:38;5.50;99.90
3051;DHT22;1535;51.098;6.414;2023-12-14T07:52:05;5.50;99.90
3051;DHT22;1535;51.098;6.414;2023-12-14T07:54:33;5.40;99.90
3051;DHT22;1535;51.098;6.414;2023-12-14T07:57:00;5.40;99.90
3051;DHT22;1535;51.098;6.414;2023-12-14T07:59:27;5.40;99.90
3051;DHT22;1535;51.098;6.414;2023-12-14T08:01:55;5.40;99.90
3051;DHT22;1535;51.098;6.414;2023-12-14T08:04:22;5.40;99.90
3051;DHT22;1535;51.098;6.414;2023-12-14T08:06:50;5.50;99.90
3051;DHT22;1535;51.098;6.414;2023-12-14T08:09:18;5.50;99.90
3051;DHT22;1535;51.098;6.414;2023-12-14T08:11:45;5.40;99.90
3051;DHT22;1535;51.098;6.414;2023-12-14T08:14:12;5.40;99.90
3051;DHT22;1535;51.098;6.414;2023-12-14T08:16:39;5.50;99.90
3051;DHT22;1535;51.098;6.414;2023-12-14T08:19:08;5.40;99.90
3051;DHT22;1535;51.098;6.414;2023-12-14T08:21:34;5.40;99.90
3051;DHT22;1535;51.098;6.414;2023-12-14T08:24:04;5.40;99.90
3051;DHT22;1535;51.098;6.414;2023-12-14T08:26:30;5.40;99.90
3051;DHT22;1535;51.098;6.414;2023-12-14T08:28:58;5.40;99.90
3051;DHT22;1535;51.098;6.414;2023-12-14T08:31:25;5.30;99.90
3051;DHT22;1535;51.098;6.414;2023-12-14T08:33:52;5.30;99.90
3051;DHT22;1535;51.098;6.414;2023-12-14T08:36:19;5.30;99.90
3051;DHT22;1535;51.098;6.414;2023-12-14T08:38:46;5.30;99.90
3051;DHT22;1535;51.098;6.414;2023-12-14T08:41:15;5.30;99.90
3051;DHT22;1535;51.098;6.414;2023-12-14T08:43:43;5.30;99.90
3051;DHT22;1535;51.098;6.414;2023-12-14T08:46:10;5.30;99.90
3051;DHT22;1535;51.098;6.414;2023-12-14T08:48:37;5.30;99.90
3051;DHT22;1535;51.098;6.414;2023-12-14T08:51:04;5.40;99.90
3051;DHT22;1535;51.098;6.414;2023-12-14T08:53:32;5.30;99.90
3051;DHT22;1535;51.098;6.414;2023-12-14T08:55:59;5.30;99.90
3051;DHT22;1535;51.098;6.414;2023-12-14T08:58:28;5.40;99.90
3051;DHT22;1535;51.098;6.414;2023-12-14T09:00:54;5.40;99.90
3051;DHT22;1535;51.098;6.414;2023-12-14T09:03:22;5.40;99.90
3051;DHT22;1535;51.098;6.414;2023-12-14T09:05:49;5.40;99.90
3051;DHT22;1535;51.098;6.414;2023-12-14T09:08:16;5.50;99.90
3051;DHT22;1535;51.098;6.414;2023-12-14T09:10:43;5.40;99.90
3051;DHT22;1535;51.098;6.414;2023-12-14T09:13:10;5.40;99.90
3051;DHT22;1535;51.098;6.414;2023-12-14T09:15:39;5.40;99.90
3051;DHT22;1535;51.098;6.414;2023-12-14T09:18:06;5.40;99.90
3051;DHT22;1535;51.098;6.414;2023-12-14T09:20:33;5.50;99.90
3051;DHT22;1535;51.098;6.414;2023-12-14T09:23:03;5.40;99.90
3051;DHT22;1535;51.098;6.414;2023-12-14T09:25:30;5.50;99.90
3051;DHT22;1535;51.098;6.414;2023-12-14T09:27:58;5.50;99.90
3051;DHT22;1535;51.098;6.414;2023-12-14T09:30:25;5.50;99.90
3051;DHT22;1535;51.098;6.414;2023-12-14T09:32:53;5.50;99.90
3051;DHT22;1535;51.098;6.414;2023-12-14T09:35:20;5.60;99.90
3051;DHT22;1535;51.098;6.414;2023-12-14T09:37:48;5.70;99.90
3051;DHT22;1535;51.098;6.414;2023-12-14T09:40:15;5.70;99.90
3051;DHT22;1535;51.098;6.414;2023-12-14T09:42:45;5.70;99.90
3051;DHT22;1535;51.098;6.414;2023-12-14T09:45:12;5.70;99.90
3051;DHT22;1535;51.098;6.414;2023-12-14T09:47:40;5.70;99.90
3051;DHT22;1535;51.098;6.414;2023-12-14T09:50:10;5.70;99.90
3051;DHT22;1535;51.098;6.414;2023-12-14T09:52:37;5.70;99.90
3051;DHT22;1535;51.098;6.414;2023-12-14T09:55:05;5.70;99.90
3051;DHT22;1535;51.098;6.414;2023-12-14T09:57:35;5.70;99.90
3051;DHT22;1535;51.098;6.414;2023-12-14T10:00:01;5.70;99.90
3051;DHT22;1535;51.098;6.414;2023-12-14T10:02:31;5.70;99.90
3051;DHT22;1535;51.098;6.414;2023-12-14T10:04:58;5.70;99.90
3051;DHT22;1535;51.098;6.414;2023-12-14T10:07:26;5.70;99.90
3051;DHT22;1535;51.098;6.414;2023-12-14T10:09:54;5.70;99.90
3051;DHT22;1535;51.098;6.414;2023-12-14T10:12:21;5.60;99.90
3051;DHT22;1535;51.098;6.414;2023-12-14T10:15:00;5.60;99.90
3051;DHT22;1535;51.098;6.414;2023-12-14T10:17:27;5.60;99.90
3051;DHT22;1535;51.098;6.414;2023-12-14T10:19:58;5.60;99.90
3051;DHT22;1535;51.098;6.414;2023-12-14T10:22:28;5.60;99.90
3051;DHT22;1535;51.098;6.414;2023-12-14T10:24:58;5.60;99.90
3051;DHT22;1535;51.098;6.414;2023-12-14T10:27:27;5.60;99.90
3051;DHT22;1535;51.098;6.414;2023-12-14T10:29:54;5.70;99.90
3051;DHT22;1535;51.098;6.414;2023-12-14T10:32:24;5.70;99.90
3051;DHT22;1535;51.098;6.414;2023-12-14T10:34:51;5.60;99.90
3051;DHT22;1535;51.098;6.414;2023-12-14T10:37:18;5.60;99.90
3051;DHT22;1535;51.098;6.414;2023-12-14T10:39:49;5.60;99.90
3051;DHT22;1535;51.098;6.414;2023-12-14T10:42:20;5.60;99.90
3051;DHT22;1535;51.098;6.414;2023-12-14T10:44:51;5.60;99.90
3051;DHT22;1535;51.098;6.414;2023-12-14T10:47:19;5.60;99.90
3051;DHT22;1535;51.098;6.414;2023-12-14T10:49:50;5.70;99.90
3051;DHT22;1535;51.098;6.414;2023-12-14T10:52:17;5.70;99.90
3051;DHT22;1535;51.098;6.414;2023-12-14T10:54:48;5.70;99.90
3051;DHT22;1535;51.098;6.414;2023-12-14T10:57:15;5.70;99.90
3051;DHT22;1535;51.098;6.414;2023-12-14T10:59:42;5.70;99.90
3051;DHT22;1535;51.098;6.414;2023-12-14T11:02:10;5.80;99.90
3051;DHT22;1535;51.098;6.414;2023-12-14T11:04:53;5.80;99.90
3051;DHT22;1535;51.098;6.414;2023-12-14T11:07:43;5.90;99.90
3051;DHT22;1535;51.098;6.414;2023-12-14T11:10:11;5.90;99.90
3051;DHT22;1535;51.098;6.414;2023-12-14T11:12:38;5.90;99.90
3051;DHT22;1535;51.098;6.414;2023-12-14T11:15:06;5.90;99.90
3051;DHT22;1535;51.098;6.414;2023-12-14T11:17:35;5.80;99.90
3051;DHT22;1535;51.098;6.414;2023-12-14T11:20:24;5.90;99.90
3051;DHT22;1535;51.098;6.414;2023-12-14T11:22:53;5.80;99.90
3051;DHT22;1535;51.098;6.414;2023-12-14T11:25:23;5.80;99.90
3051;DHT22;1535;51.098;6.414;2023-12-14T11:27:50;5.80;99.90
3051;DHT22;1535;51.098;6.414;2023-12-14T11:30:18;5.70;99.90
3051;DHT22;1535;51.098;6.414;2023-12-14T11:32:45;5.80;99.90
3051;DHT22;1535;51.098;6.414;2023-12-14T11:35:11;5.80;99.90
3051;DHT22;1535;51.098;6.414;2023-12-14T11:37:40;5.90;99.90
3051;DHT22;1535;51.098;6.414;2023-12-14T11:40:08;5.90;99.90
3051;DHT22;1535;51.098;6.414;2023-12-14T11:42:37;6.00;99.90
3051;DHT22;1535;51.098;6.414;2023-12-14T11:45:04;6.10;99.90
3051;DHT22;1535;51.098;6.414;2023-12-14T11:47:31;6.10;99.90
3051;DHT22;1535;51.098;6.414;2023-12-14T11:49:58;6.10;99.90
3051;DHT22;1535;51.098;6.414;2023-12-14T11:52:25;6.10;99.90
3051;DHT22;1535;51.098;6.414;2023-12-14T11:54:53;6.10;99.90
3051;DHT22;1535;51.098;6.414;2023-12-14T11:57:20;6.10;99.90
3051;DHT22;1535;51.098;6.414;2023-12-14T11:59:50;6.10;99.90
3051;DHT22;1535;51.098;6.414;2023-12-14T12:02:23;6.00;99.90
3051;DHT22;1535;51.098;6.414;2023-12-14T12:04:51;6.10;99.90
3051;DHT22;1535;51.098;6.414;2023-12-14T12:07:19;6.10;99.90
3051;DHT22;1535;51.098;6.414;2023-12-14T12:09:47;6.10;99.90
3051;DHT22;1535;51.098;6.414;2023-12-14T12:12:15;6.10;99.90
3051;DHT22;1535;51.098;6.414;2023-12-14T12:14:41;6.10;99.90
3051;DHT22;1535;51.098;6.414;2023-12-14T12:17:10;6.20;99.90
3051;DHT22;1535;51.098;6.414;2023-12-14T12:19:37;6.20;99.90
3051;DHT22;1535;51.098;6.414;2023-12-14T12:22:04;6.20;99.90
3051;DHT22;1535;51.098;6.414;2023-12-14T12:24:31;6.10;99.90
3051;DHT22;1535;51.098;6.414;2023-12-14T12:26:58;6.00;99.90
3051;DHT22;1535;51.098;6.414;2023-12-14T12:29:27;5.90;99.90
3051;DHT22;1535;51.098;6.414;2023-12-14T12:31:54;5.90;99.90
3051;DHT22;1535;51.098;6.414;2023-12-14T12:34:22;5.90;99.90
3051;DHT22;1535;51.098;6.414;2023-12-14T12:36:47;5.90;99.90
3051;DHT22;1535;51.098;6.414;2023-12-14T12:39:14;5.80;99.90
3051;DHT22;1535;51.098;6.414;2023-12-14T12:41:42;5.90;99.90
3051;DHT22;1535;51.098;6.414;2023-12-14T12:44:09;5.80;99.90
3051;DHT22;1535;51.098;6.414;2023-12-14T12:46:36;5.80;99.90
3051;DHT22;1535;51.098;6.414;2023-12-14T12:49:04;5.80;99.90
3051;DHT22;1535;51.098;6.414;2023-12-14T12:51:33;5.90;99.90
3051;DHT22;1535;51.098;6.414;2023-12-14T12:54:00;5.90;99.90
3051;DHT22;1535;51.098;6.414;2023-12-14T12:56:29;5.90;99.90
3051;DHT22;1535;51.098;6.414;2023-12-14T12:58:56;5.90;99.90
3051;DHT22;1535;51.098;6.414;2023-12-14T13:01:23;6.00;99.90
3051;DHT22;1535;51.098;6.414;2023-12-14T13:03:54;6.00;99.90
3051;DHT22;1535;51.098;6.414;2023-12-14T13:06:24;5.90;99.90
3051;DHT22;1535;51.098;6.414;2023-12-14T13:08:52;5.90;99.90
3051;DHT22;1535;51.098;6.414;2023-12-14T13:11:19;5.80;99.90
3051;DHT22;1535;51.098;6.414;2023-12-14T13:13:45;5.90;99.90
3051;DHT22;1535;51.098;6.414;2023-12-14T13:16:13;5.90;99.90
3051;DHT22;1535;51.098;6.414;2023-12-14T13:18:43;5.80;99.90
3051;DHT22;1535;51.098;6.414;2023-12-14T13:21:10;5.80;99.90
3051;DHT22;1535;51.098;6.414;2023-12-14T13:23:37;5.90;99.90
3051;DHT22;1535;51.098;6.414;2023-12-14T13:26:05;5.90;99.90
3051;DHT22;1535;51.098;6.414;2023-12-14T13:28:32;5.80;99.90
3051;DHT22;1535;51.098;6.414;2023-12-14T13:30:58;5.90;99.90
3051;DHT22;1535;51.098;6.414;2023-12-14T13:33:26;5.90;99.90
3051;DHT22;1535;51.098;6.414;2023-12-14T13:35:53;5.80;99.90
3051;DHT22;1535;51.098;6.414;2023-12-14T13:38:20;5.80;99.90
3051;DHT22;1535;51.098;6.414;2023-12-14T13:40:47;5.80;99.90
3051;DHT22;1535;51.098;6.414;2023-12-14T13:43:15;5.80;99.90
3051;DHT22;1535;51.098;6.414;2023-12-14T13:45:42;5.80;99.90
3051;DHT22;1535;51.098;6.414;2023-12-14T13:48:09;5.70;99.90
3051;DHT22;1535;51.098;6.414;2023-12-14T13:50:36;5.70;99.90
3051;DHT22;1535;51.098;6.414;2023-12-14T13:53:03;5.70;99.90
3051;DHT22;1535;51.098;6.414;2023-12-14T13:55:30;5.60;99.90
3051;DHT22;1535;51.098;6.414;2023-12-14T13:57:57;5.60;99.90
3051;DHT22;1535;51.098;6.414;2023-12-14T14:00:27;5.50;99.90
3051;DHT22;1535;51.098;6.414;2023-12-14T14:02:53;5.50;99.90
3051;DHT22;1535;51.098;6.414;2023-12-14T14:05:21;5.40;99.90
3051;DHT22;1535;51.098;6.414;2023-12-14T14:07:48;5.40;99.90
3051;DHT22;1535;51.098;6.414;2023-12-14T14:10:14;5.50;99.90
3051;DHT22;1535;51.098;6.414;2023-12-14T14:12:41;5.40;99.90
3051;DHT22;1535;51.098;6.414;2023-12-14T14:15:08;5.40;99.90
3051;DHT22;1535;51.098;6.414;2023-12-14T14:17:37;5.40;99.90
3051;DHT22;1535;51.098;6.414;2023-12-14T14:20:05;5.40;99.90
3051;DHT22;1535;51.098;6.414;2023-12-14T14:22:32;5.40;99.90
3051;DHT22;1535;51.098;6.414;2023-12-14T14:24:59;5.40;99.90
3051;DHT22;1535;51.098;6.414;2023-12-14T14:27:26;5.50;99.90
3051;DHT22;1535;51.098;6.414;2023-12-14T14:29:53;5.50;99.90
3051;DHT22;1535;51.098;6.414;2023-12-14T14:32:21;5.50;99.90
3051;DHT22;1535;51.098;6.414;2023-12-14T14:34:49;5.40;99.90
3051;DHT22;1535;51.098;6.414;2023-12-14T14:37:16;5.50;99.90
3051;DHT22;1535;51.098;6.414;2023-12-14T14:39:43;5.50;99.90
3051;DHT22;1535;51.098;6.414;2023-12-14T14:42:10;5.50;99.90
3051;DHT22;1535;51.098;6.414;2023-12-14T14:44:37;5.50;99.90
3051;DHT22;1535;51.098;6.414;2023-12-14T14:47:05;5.50;99.90
3051;DHT22;1535;51.098;6.414;2023-12-14T14:49:32;5.50;99.90
3051;DHT22;1535;51.098;6.414;2023-12-14T14:52:00;5.50;99.90
3051;DHT22;1535;51.098;6.414;2023-12-14T14:54:27;5.50;99.90
3051;DHT22;1535;51.098;6.414;2023-12-14T14:56:54;5.50;99.90
3051;DHT22;1535;51.098;6.414;2023-12-14T14:59:22;5.40;99.90
3051;DHT22;1535;51.098;6.414;2023-12-14T15:01:48;5.40;99.90
3051;DHT22;1535;51.098;6.414;2023-12-14T15:04:16;5.50;99.90
3051;DHT22;1535;51.098;6.414;2023-12-14T15:06:43;5.40;99.90
3051;DHT22;1535;51.098;6.414;2023-12-14T15:09:12;5.40;99.90
3051;DHT22;1535;51.098;6.414;2023-12-14T15:11:39;5.40;99.90
3051;DHT22;1535;51.098;6.414;2023-12-14T15:14:06;5.40;99.90
3051;DHT22;1535;51.098;6.414;2023-12-14T15:16:33;5.30;99.90
3051;DHT22;1535;51.098;6.414;2023-12-14T15:19:01;5.40;99.90
3051;DHT22;1535;51.098;6.414;2023-12-14T15:21:28;5.30;99.90
3051;DHT22;1535;51.098;6.414;2023-12-14T15:23:55;5.40;99.90
3051;DHT22;1535;51.098;6.414;2023-12-14T15:26:23;5.40;99.90
3051;DHT22;1535;51.098;6.414;2023-12-14T15:28:51;5.40;99.90
3051;DHT22;1535;51.098;6.414;2023-12-14T15:31:17;5.40;99.90
3051;DHT22;1535;51.098;6.414;2023-12-14T15:33:44;5.40;99.90
3051;DHT22;1535;51.098;6.414;2023-12-14T15:36:11;5.40;99.90
3051;DHT22;1535;51.098;6.414;2023-12-14T15:38:38;5.40;99.90
3051;DHT22;1535;51.098;6.414;2023-12-14T15:41:06;5.30;99.90
3051;DHT22;1535;51.098;6.414;2023-12-14T15:43:34;5.30;99.90
3051;DHT22;1535;51.098;6.414;2023-12-14T15:46:02;5.20;99.90
3051;DHT22;1535;51.098;6.414;2023-12-14T15:48:28;5.20;99.90
3051;DHT22;1535;51.098;6.414;2023-12-14T15:50:56;5.20;99.90
3051;DHT22;1535;51.098;6.414;2023-12-14T15:53:23;5.20;99.90
3051;DHT22;1535;51.098;6.414;2023-12-14T15:55:50;5.20;99.90
3051;DHT22;1535;51.098;6.414;2023-12-14T15:58:17;5.20;99.90
3051;DHT22;1535;51.098;6.414;2023-12-14T16:00:45;5.30;99.90
3051;DHT22;1535;51.098;6.414;2023-12-14T16:03:11;5.30;99.90
3051;DHT22;1535;51.098;6.414;2023-12-14T16:05:38;5.30;99.90
3051;DHT22;1535;51.098;6.414;2023-12-14T16:08:05;5.20;99.90
3051;DHT22;1535;51.098;6.414;2023-12-14T16:10:33;5.20;99.90
3051;DHT22;1535;51.098;6.414;2023-12-14T16:13:00;5.20;99.90
3051;DHT22;1535;51.098;6.414;2023-12-14T16:15:27;5.00;99.90
3051;DHT22;1535;51.098;6.414;2023-12-14T16:17:57;4.90;99.90
3051;DHT22;1535;51.098;6.414;2023-12-14T16:20:24;4.90;99.90
3051;DHT22;1535;51.098;6.414;2023-12-14T16:22:51;4.80;99.90